Time;durP1;ratioP1;P1;durP2;ratioP2;P2;SDS_P1;SDS_P2;PMS_P1;PMS_P2;Temp;Humidity;BMP_temperature;BMP_pressure;BME280_temperature;BME280_humidity;BME280_pressure;Samples;Min_cycle;Max_cycle;Signal;HPM_P1;HPM_P2
2023/08/14 00:00:22;;;;;;;11.70;10.90;;;;;;;20.99;92.73;97987.97;5092100;28;20471;-75
2023/08/14 00:02:49;;;;;;;11.27;10.13;;;;;;;20.99;92.97;97986.03;5091868;28;20485;-76
2023/08/14 00:05:16;;;;;;;11.27;10.37;;;;;;;21.08;92.21;97984.44;5091571;28;20444;-75
2023/08/14 00:07:44;;;;;;;11.60;10.73;;;;;;;21.16;92.57;97977.53;5092121;28;20493;-75
2023/08/14 00:10:11;;;;;;;10.70;9.80;;;;;;;21.16;92.36;97983.06;5091311;28;20485;-75
2023/08/14 00:12:38;;;;;;;11.00;10.13;;;;;;;21.07;92.85;97995.72;5091742;28;20466;-75
2023/08/14 00:15:05;;;;;;;8.97;8.20;;;;;;;21.21;91.49;97990.53;5091126;28;20488;-75
2023/08/14 00:17:32;;;;;;;10.90;10.10;;;;;;;21.23;91.92;97991.91;5091745;28;20457;-75
2023/08/14 00:19:59;;;;;;;9.40;8.70;;;;;;;21.15;91.65;97984.16;5091738;28;20452;-75
2023/08/14 00:22:25;;;;;;;12.90;11.63;;;;;;;21.24;92.02;97981.72;5091552;28;21003;-75
2023/08/14 00:24:53;;;;;;;10.90;10.10;;;;;;;21.25;91.86;97984.22;5091083;28;21379;-75
2023/08/14 00:27:21;;;;;;;9.13;8.43;;;;;;;21.31;91.05;97974.88;5091645;28;20452;-75
2023/08/14 00:29:47;;;;;;;10.03;9.23;;;;;;;21.28;91.32;97986.41;5091228;28;20888;-75
2023/08/14 00:32:14;;;;;;;10.30;9.50;;;;;;;21.37;91.19;97984.78;5091397;28;20449;-75
2023/08/14 00:34:41;;;;;;;10.27;9.47;;;;;;;21.50;90.76;97982.59;5090963;28;20461;-75
2023/08/14 00:37:08;;;;;;;10.70;9.80;;;;;;;21.38;91.19;97977.34;5091216;28;20810;-75
2023/08/14 00:39:34;;;;;;;12.27;11.17;;;;;;;21.20;91.59;97973.16;5091442;28;20630;-75
2023/08/14 00:42:03;;;;;;;9.30;8.60;;;;;;;21.33;90.96;97978.19;5091169;28;20540;-75
2023/08/14 00:44:30;;;;;;;9.90;9.00;;;;;;;21.33;91.52;97977.34;5090832;28;20513;-75
2023/08/14 00:46:57;;;;;;;12.17;11.07;;;;;;;21.24;91.36;97979.81;5091006;28;21211;-75
2023/08/14 00:49:24;;;;;;;11.40;10.43;;;;;;;21.01;91.77;97974.78;5090727;28;20554;-75
2023/08/14 00:51:50;;;;;;;9.80;9.00;;;;;;;20.94;92.43;97972.25;5090491;28;20452;-75
2023/08/14 00:54:17;;;;;;;10.43;9.50;;;;;;;21.02;92.36;97962.66;5090807;28;20471;-74
2023/08/14 00:56:44;;;;;;;13.07;11.80;;;;;;;20.70;92.23;97919.66;5090913;28;20534;-75
2023/08/14 00:59:12;;;;;;;13.70;12.60;;;;;;;20.92;92.65;97965.38;5090882;28;20958;-75
2023/08/14 01:01:39;;;;;;;14.67;13.57;;;;;;;20.75;93.56;97968.38;5090838;28;20464;-75
2023/08/14 01:04:06;;;;;;;14.03;13.03;;;;;;;20.70;93.64;97968.34;5090839;28;20465;-75
2023/08/14 01:06:33;;;;;;;13.13;11.83;;;;;;;20.68;93.96;97960.34;5090367;28;20474;-74
2023/08/14 01:08:59;;;;;;;14.50;13.30;;;;;;;20.80;93.91;97960.94;5090793;28;21069;-75
2023/08/14 01:11:30;;;;;;;11.70;10.80;;;;;;;20.82;93.75;97965.34;5090963;28;20481;-74
2023/08/14 01:14:01;;;;;;;11.90;10.70;;;;;;;20.97;93.62;97968.16;5090140;28;20580;-76
2023/08/14 01:16:34;;;;;;;10.87;10.07;;;;;;;21.02;93.21;97971.75;5090626;28;20438;-75
2023/08/14 01:19:02;;;;;;;10.20;9.50;;;;;;;21.05;92.96;97975.88;5090309;28;20534;-75
2023/08/14 01:21:36;;;;;;;11.70;10.70;;;;;;;21.11;92.91;97975.63;5090607;28;20452;-75
2023/08/14 01:24:22;;;;;;;10.43;9.53;;;;;;;21.12;93.10;97966.25;5089919;28;20869;-75
2023/08/14 01:26:52;;;;;;;11.33;10.37;;;;;;;21.26;92.75;97963.84;5090875;28;20467;-75
2023/08/14 01:29:18;;;;;;;10.80;10.00;;;;;;;21.33;92.15;97969.09;5090322;28;20452;-75
2023/08/14 01:31:45;;;;;;;11.87;10.87;;;;;;;21.40;91.65;97976.00;5090413;28;20513;-75
2023/08/14 01:34:12;;;;;;;12.20;11.13;;;;;;;21.44;91.35;97968.00;5090072;28;20876;-75
2023/08/14 01:36:42;;;;;;;13.07;11.87;;;;;;;21.34;91.76;97976.25;5090310;28;20442;-76
2023/08/14 01:39:10;;;;;;;12.30;11.30;;;;;;;21.22;92.22;97973.75;5090153;28;20451;-75
2023/08/14 01:41:42;;;;;;;13.63;12.43;;;;;;;21.21;91.86;97983.09;5090097;28;20449;-75
2023/08/14 01:44:15;;;;;;;14.57;13.43;;;;;;;21.11;92.59;97985.81;5090014;28;20463;-75
2023/08/14 01:46:43;;;;;;;15.37;14.17;;;;;;;21.07;92.46;97988.28;5089697;28;20997;-75
2023/08/14 01:49:11;;;;;;;16.20;14.73;;;;;;;20.82;93.44;98003.84;5092933;28;20452;-75
2023/08/14 01:51:39;;;;;;;11.80;10.70;;;;;;;20.58;94.54;98003.47;5092628;28;20517;-75
2023/08/14 01:54:06;;;;;;;15.30;13.90;;;;;;;20.64;94.51;97989.50;5089926;28;20465;-75
2023/08/14 01:56:33;;;;;;;14.00;12.90;;;;;;;20.62;94.84;97986.19;5090264;28;20537;-75
2023/08/14 01:59:00;;;;;;;13.90;12.80;;;;;;;20.72;94.70;97968.91;5090334;28;20487;-74
2023/08/14 02:01:28;;;;;;;15.10;13.90;;;;;;;20.77;94.24;97968.91;5090671;28;20498;-74
2023/08/14 02:03:55;;;;;;;16.63;15.43;;;;;;;20.76;94.30;97951.59;5090271;28;20468;-74
2023/08/14 02:06:21;;;;;;;17.03;15.63;;;;;;;20.69;94.54;97950.19;5094696;28;20544;-74
2023/08/14 02:08:48;;;;;;;16.70;15.30;;;;;;;20.65;95.08;97938.88;5094646;28;20523;-75
2023/08/14 02:11:15;;;;;;;17.03;15.43;;;;;;;20.66;94.99;97939.72;5094182;28;20515;-75
2023/08/14 02:13:42;;;;;;;15.50;14.20;;;;;;;20.65;95.53;97946.31;5093815;28;20502;-76
2023/08/14 02:16:09;;;;;;;14.83;13.73;;;;;;;20.60;95.81;97947.13;5093613;28;20443;-76
2023/08/14 02:18:37;;;;;;;18.00;16.60;;;;;;;20.64;95.44;97941.91;5094006;28;20497;-76
2023/08/14 02:21:04;;;;;;;19.87;18.17;;;;;;;20.62;95.62;97933.91;5093856;28;20440;-76
2023/08/14 02:23:31;;;;;;;17.17;15.80;;;;;;;20.47;96.08;97898.09;5093329;28;20461;-76
2023/08/14 02:25:57;;;;;;;16.77;15.47;;;;;;;20.80;95.38;97929.84;5093788;28;20462;-76
2023/08/14 02:28:25;;;;;;;16.80;15.40;;;;;;;20.82;95.15;97924.06;5093773;28;20499;-76
2023/08/14 02:30:51;;;;;;;15.20;14.00;;;;;;;20.65;95.71;97927.88;5093485;28;20588;-76
2023/08/14 02:33:18;;;;;;;20.83;19.23;;;;;;;20.90;95.58;97931.81;5092678;28;21173;-77
2023/08/14 02:35:46;;;;;;;18.57;17.10;;;;;;;20.70;95.90;97924.31;5093554;28;20233;-77
2023/08/14 02:38:13;;;;;;;20.93;19.07;;;;;;;20.77;95.75;97927.66;5093480;28;20592;-77
2023/08/14 02:40:40;;;;;;;17.77;16.33;;;;;;;20.66;95.58;97924.03;5093266;28;20658;-77
2023/08/14 02:43:07;;;;;;;17.67;16.10;;;;;;;20.69;95.81;97912.50;5093413;28;20496;-77
2023/08/14 02:45:34;;;;;;;18.80;17.23;;;;;;;20.59;96.17;97900.63;5093115;28;20501;-78
2023/08/14 02:48:00;;;;;;;20.73;18.70;;;;;;;20.57;96.68;97903.66;5093192;28;20547;-77
2023/08/14 02:50:27;;;;;;;16.80;15.43;;;;;;;20.45;96.91;97901.16;5092952;28;20978;-77
2023/08/14 02:52:55;;;;;;;16.10;14.90;;;;;;;20.25;97.59;97900.19;5093507;28;20511;-77
2023/08/14 02:55:22;;;;;;;15.70;14.50;;;;;;;20.25;97.53;97897.44;5092580;28;20515;-77
2023/08/14 02:57:49;;;;;;;14.70;13.50;;;;;;;20.07;97.61;97885.81;5092439;28;20452;-77
2023/08/14 03:00:17;;;;;;;15.57;14.27;;;;;;;20.00;97.83;97887.97;5093303;28;20530;-77
2023/08/14 03:02:43;;;;;;;14.50;13.30;;;;;;;19.82;98.26;97888.41;5092884;28;20473;-77
2023/08/14 03:05:10;;;;;;;11.27;10.20;;;;;;;19.66;98.61;97897.66;5092780;28;20696;-76
2023/08/14 03:07:37;;;;;;;9.60;8.80;;;;;;;19.46;98.57;97898.31;5093436;28;20447;-76
2023/08/14 03:10:06;;;;;;;7.80;7.23;;;;;;;19.40;98.20;97910.34;5093063;28;20475;-75
2023/08/14 03:12:32;;;;;;;8.10;7.50;;;;;;;19.29;98.33;97909.41;5092938;28;20553;-75
2023/08/14 03:14:59;;;;;;;9.00;8.20;;;;;;;19.27;98.25;97919.81;5092278;28;20470;-76
2023/08/14 03:17:26;;;;;;;8.60;8.00;;;;;;;19.21;98.46;97925.50;5093361;28;20522;-77
2023/08/14 03:19:53;;;;;;;8.33;7.60;;;;;;;19.23;98.61;97924.16;5092768;28;20453;-76
2023/08/14 03:22:20;;;;;;;8.63;7.90;;;;;;;19.30;98.29;97922.03;5092638;28;20476;-77
2023/08/14 03:24:46;;;;;;;10.07;9.03;;;;;;;19.25;98.17;97924.75;5092769;28;20441;-76
2023/08/14 03:27:14;;;;;;;8.87;8.00;;;;;;;19.25;98.17;97921.16;5092640;28;20518;-76
2023/08/14 03:29:41;;;;;;;8.73;8.00;;;;;;;19.24;98.14;97934.06;5092561;28;21134;-76
2023/08/14 03:32:08;;;;;;;9.70;8.80;;;;;;;19.30;97.97;97949.50;5092523;28;20492;-76
2023/08/14 03:34:35;;;;;;;9.13;8.53;;;;;;;19.40;97.82;97946.84;5092122;28;20449;-76
2023/08/14 03:37:01;;;;;;;10.77;9.70;;;;;;;19.22;98.16;97938.97;5092507;28;20440;-76
2023/08/14 03:39:28;;;;;;;10.93;9.93;;;;;;;19.33;97.93;97940.72;5092208;28;20530;-76
2023/08/14 03:41:55;;;;;;;11.67;10.70;;;;;;;19.30;97.71;97935.75;5092500;28;20453;-76
2023/08/14 03:44:23;;;;;;;9.80;9.10;;;;;;;19.26;97.72;97931.88;5092166;28;20483;-77
2023/08/14 03:46:50;;;;;;;11.97;10.97;;;;;;;19.22;98.17;97940.88;5092554;28;20434;-77
2023/08/14 03:49:17;;;;;;;11.27;9.23;;;;;;;19.25;97.95;97930.22;5092369;28;20454;-76
2023/08/14 03:51:44;;;;;;;11.47;10.47;;;;;;;19.27;97.58;97936.28;5092032;28;20511;-77
2023/08/14 03:54:10;;;;;;;13.27;11.97;;;;;;;19.18;97.64;97935.09;5092129;28;21281;-76
2023/08/14 03:56:37;;;;;;;10.27;9.37;;;;;;;19.28;97.64;97923.38;5095953;28;20507;-77
2023/08/14 03:59:05;;;;;;;12.20;11.20;;;;;;;19.08;98.01;97921.28;5092463;28;20499;-76
2023/08/14 04:01:34;;;;;;;13.60;12.30;;;;;;;19.00;98.16;97928.06;5091813;28;20441;-76
2023/08/14 04:04:00;;;;;;;13.87;12.47;;;;;;;19.07;98.27;97933.34;5092184;28;20772;-76
2023/08/14 04:06:27;;;;;;;13.00;11.90;;;;;;;19.04;98.38;97953.06;5092533;28;20489;-76
2023/08/14 04:08:54;;;;;;;13.03;11.90;;;;;;;18.99;98.29;97937.38;5092262;28;20533;-76
2023/08/14 04:11:21;;;;;;;11.43;10.43;;;;;;;18.95;98.36;97946.38;5091949;28;21011;-76
2023/08/14 04:13:48;;;;;;;11.97;11.07;;;;;;;18.93;98.56;97932.94;5091131;28;20910;-76
2023/08/14 04:16:15;;;;;;;12.50;11.20;;;;;;;18.93;98.39;97929.34;5091848;28;20456;-76
2023/08/14 04:18:43;;;;;;;11.90;10.90;;;;;;;18.87;98.26;97920.25;5091151;28;20918;-77
2023/08/14 04:21:10;;;;;;;10.40;9.53;;;;;;;18.96;98.18;97931.59;5091281;28;20520;-76
2023/08/14 04:23:37;;;;;;;10.70;9.90;;;;;;;18.98;97.90;97943.97;5090962;28;20461;-76
2023/08/14 04:26:04;;;;;;;11.60;10.70;;;;;;;19.05;97.67;97941.84;5091043;28;20457;-77
2023/08/14 04:28:31;;;;;;;11.50;10.50;;;;;;;18.93;98.00;97943.91;5090091;28;20520;-77
2023/08/14 04:30:59;;;;;;;10.73;9.93;;;;;;;18.98;97.95;97937.66;5090534;28;20481;-76
2023/08/14 04:33:26;;;;;;;9.97;9.17;;;;;;;19.11;97.32;97942.72;5090647;28;20470;-76
2023/08/14 04:35:54;;;;;;;10.17;9.37;;;;;;;19.06;97.54;97937.19;5090836;28;20865;-77
2023/08/14 04:38:21;;;;;;;11.10;10.30;;;;;;;18.98;97.70;97923.94;5090822;28;20465;-76
2023/08/14 04:40:47;;;;;;;9.87;9.10;;;;;;;19.09;97.47;97920.22;5090203;28;20516;-77
2023/08/14 04:43:14;;;;;;;9.80;9.10;;;;;;;19.12;97.07;97922.44;5090457;28;21036;-76
2023/08/14 04:45:41;;;;;;;9.30;8.50;;;;;;;19.15;97.13;97924.66;5090261;28;20531;-77
2023/08/14 04:48:07;;;;;;;9.00;8.37;;;;;;;19.20;96.70;97938.41;5090602;28;20523;-76
2023/08/14 04:50:34;;;;;;;9.30;8.60;;;;;;;19.25;96.69;97945.88;5090312;28;20444;-77
2023/08/14 04:53:03;;;;;;;9.17;8.37;;;;;;;19.22;96.88;97930.75;5090429;28;20469;-76
2023/08/14 04:55:29;;;;;;;10.37;9.30;;;;;;;19.04;97.32;97928.38;5090228;28;20453;-76
2023/08/14 04:57:56;;;;;;;8.90;8.30;;;;;;;19.21;96.95;97917.28;5090398;28;20502;-77
2023/08/14 05:00:23;;;;;;;8.60;8.00;;;;;;;19.30;96.63;97926.69;5090702;28;20534;-77
2023/08/14 05:02:50;;;;;;;7.37;6.70;;;;;;;19.28;96.31;97929.72;5090650;28;20461;-76
2023/08/14 05:05:17;;;;;;;8.93;8.17;;;;;;;19.34;96.45;97936.91;5090093;28;20437;-77
2023/08/14 05:07:43;;;;;;;8.20;7.50;;;;;;;19.32;96.09;97930.84;5090246;28;21002;-76
2023/08/14 05:10:11;;;;;;;9.40;8.70;;;;;;;19.21;96.62;97931.81;5090243;28;20453;-76
2023/08/14 05:12:38;;;;;;;10.10;9.13;;;;;;;19.20;97.01;97932.91;5090040;28;20584;-76
2023/08/14 05:15:06;;;;;;;11.07;10.17;;;;;;;19.19;97.29;97925.78;5089798;28;20854;-76
2023/08/14 05:17:33;;;;;;;11.83;10.90;;;;;;;19.27;97.09;97916.25;5090134;28;20443;-76
2023/08/14 05:20:00;;;;;;;10.70;9.90;;;;;;;19.38;96.74;97918.00;5090143;28;20437;-76
2023/08/14 05:22:27;;;;;;;9.40;8.57;;;;;;;19.39;96.97;97915.00;5089794;28;21015;-77
2023/08/14 05:24:53;;;;;;;12.90;11.73;;;;;;;19.36;97.50;97923.75;5089296;28;20868;-76
2023/08/14 05:27:21;;;;;;;11.97;10.97;;;;;;;19.42;97.00;97913.66;5090207;28;20437;-76
2023/08/14 05:29:48;;;;;;;11.37;10.37;;;;;;;19.42;96.99;97914.47;5089744;28;20433;-77
2023/08/14 05:32:15;;;;;;;10.37;9.57;;;;;;;19.62;96.85;97913.00;5089761;28;20573;-76
2023/08/14 05:34:42;;;;;;;10.43;9.53;;;;;;;19.68;96.15;97909.19;5089306;28;20880;-76
2023/08/14 05:37:09;;;;;;;10.67;9.87;;;;;;;19.81;95.96;97906.00;5089712;28;20565;-76
2023/08/14 05:39:35;;;;;;;10.53;9.60;;;;;;;19.84;96.21;97904.63;5089264;28;20450;-76
2023/08/14 05:42:02;;;;;;;11.20;10.30;;;;;;;19.91;95.77;97910.72;5089928;28;20539;-76
2023/08/14 05:44:30;;;;;;;11.00;9.27;;;;;;;19.92;95.19;97907.69;5089338;28;20533;-76
2023/08/14 05:46:57;;;;;;;8.83;8.13;;;;;;;20.00;94.64;97901.72;5089625;28;20596;-76
2023/08/14 05:49:24;;;;;;;8.40;7.53;;;;;;;19.89;94.53;97901.91;5089425;28;21172;-74
2023/08/14 05:51:51;;;;;;;8.67;7.87;;;;;;;19.90;94.61;97903.56;5089351;28;20824;-75
2023/08/14 05:54:18;;;;;;;7.37;6.80;;;;;;;19.96;94.43;97900.59;5089703;28;20570;-76
2023/08/14 05:56:46;;;;;;;7.00;6.50;;;;;;;20.03;94.04;97892.13;5089220;28;21373;-76
2023/08/14 05:59:12;;;;;;;7.23;6.57;;;;;;;20.09;93.54;97897.38;5089651;28;20449;-75
2023/08/14 06:01:40;;;;;;;6.40;5.90;;;;;;;20.19;92.56;97899.31;5090071;28;20462;-76
2023/08/14 06:04:07;;;;;;;6.53;6.03;;;;;;;20.16;92.83;97902.59;5089697;28;20453;-76
2023/08/14 06:06:34;;;;;;;5.83;5.43;;;;;;;20.09;93.39;97913.88;5089312;28;20473;-76
2023/08/14 06:09:01;;;;;;;6.17;5.67;;;;;;;20.22;93.08;97911.72;5089610;28;20456;-76
2023/08/14 06:11:28;;;;;;;7.07;5.67;;;;;;;20.28;92.35;97916.97;5089622;28;20586;-76
2023/08/14 06:13:55;;;;;;;6.03;5.60;;;;;;;20.48;92.13;97924.50;5088959;28;20602;-76
2023/08/14 06:16:21;;;;;;;6.13;5.70;;;;;;;20.53;91.68;97921.78;5089067;28;20437;-76
2023/08/14 06:18:50;;;;;;;5.63;5.07;;;;;;;20.41;92.77;97924.78;5089577;28;20504;-76
2023/08/14 06:21:17;;;;;;;6.20;5.00;;;;;;;20.44;91.61;97906.91;5089382;28;20549;-76
2023/08/14 06:23:44;;;;;;;5.17;4.73;;;;;;;20.58;91.49;97910.81;5089101;28;20461;-76
2023/08/14 06:26:11;;;;;;;6.23;5.73;;;;;;;20.59;91.38;97904.19;5088886;28;21072;-76
2023/08/14 06:28:38;;;;;;;4.87;4.47;;;;;;;20.68;90.73;97899.00;5089338;28;21031;-75
2023/08/14 06:31:04;;;;;;;5.53;5.03;;;;;;;20.49;91.18;97887.66;5088912;28;21113;-76
2023/08/14 06:33:31;;;;;;;5.17;4.77;;;;;;;20.56;91.15;97881.91;5088393;28;20532;-76
2023/08/14 06:35:59;;;;;;;5.40;5.00;;;;;;;20.82;90.39;97889.13;5089085;28;20449;-76
2023/08/14 06:38:26;;;;;;;5.20;4.70;;;;;;;20.61;89.55;97893.75;5089016;28;20437;-76
2023/08/14 06:40:53;;;;;;;5.50;5.10;;;;;;;20.78;89.98;97910.06;5089176;28;20531;-76
2023/08/14 06:43:20;;;;;;;5.37;4.90;;;;;;;20.66;90.15;97910.28;5089018;28;20547;-75
2023/08/14 06:45:47;;;;;;;5.27;4.87;;;;;;;20.79;89.62;97904.25;5089086;28;20491;-75
2023/08/14 06:48:14;;;;;;;5.07;4.67;;;;;;;20.66;90.47;97891.03;5088852;28;20547;-76
2023/08/14 06:50:41;;;;;;;6.03;5.53;;;;;;;20.91;89.29;97900.44;5090490;28;20538;-76
2023/08/14 06:53:09;;;;;;;6.33;5.83;;;;;;;20.71;89.88;97899.31;5092806;28;20600;-75
2023/08/14 06:55:36;;;;;;;5.50;5.10;;;;;;;20.78;90.05;97899.88;5092779;28;20445;-75
2023/08/14 06:58:03;;;;;;;6.67;6.10;;;;;;;21.08;88.88;97898.28;5092764;28;20451;-76
2023/08/14 07:00:30;;;;;;;5.40;5.00;;;;;;;21.53;87.38;97899.41;5092470;28;20981;-75
2023/08/14 07:02:57;;;;;;;5.60;5.20;;;;;;;22.34;83.39;97905.63;5092398;28;21097;-75
2023/08/14 07:05:24;;;;;;;5.33;4.93;;;;;;;22.73;81.64;97902.16;5091741;28;20445;-76
2023/08/14 07:07:50;;;;;;;5.00;4.60;;;;;;;22.86;81.10;97906.22;5092729;28;20457;-75
2023/08/14 07:10:19;;;;;;;5.30;4.43;;;;;;;23.46;78.30;97911.34;5092804;28;20449;-75
2023/08/14 07:12:45;;;;;;;4.63;4.33;;;;;;;23.45;78.22;97904.16;5092268;28;20516;-75
2023/08/14 07:15:12;;;;;;;4.53;4.13;;;;;;;23.55;75.97;97910.75;5092040;28;20468;-75
2023/08/14 07:17:39;;;;;;;4.00;3.70;;;;;;;23.84;75.66;97903.28;5092625;28;20484;-75
2023/08/14 07:20:08;;;;;;;4.07;3.33;;;;;;;23.73;74.92;97910.03;5092420;28;20441;-75
2023/08/14 07:22:34;;;;;;;3.77;3.50;;;;;;;24.53;73.49;97902.00;5092131;28;20530;-76
2023/08/14 07:25:02;;;;;;;4.67;3.37;;;;;;;24.75;72.75;97902.25;5091972;28;20544;-75
2023/08/14 07:27:30;;;;;;;5.00;3.70;;;;;;;24.98;71.35;97892.31;5092125;28;20973;-76
2023/08/14 07:29:56;;;;;;;4.83;3.80;;;;;;;25.30;70.23;97894.31;5092284;28;20648;-76
2023/08/14 07:32:23;;;;;;;4.43;4.00;;;;;;;25.13;71.38;97904.25;5092049;28;20591;-75
2023/08/14 07:34:50;;;;;;;4.33;3.93;;;;;;;25.66;70.85;97897.34;5091810;28;20536;-76
2023/08/14 07:37:17;;;;;;;4.03;3.50;;;;;;;26.13;67.85;97902.88;5091816;28;20456;-75
2023/08/14 07:39:44;;;;;;;3.80;3.50;;;;;;;26.18;66.98;97863.94;5091945;28;20541;-75
2023/08/14 07:42:11;;;;;;;3.70;3.40;;;;;;;26.25;67.16;97903.22;5091771;28;20461;-76
2023/08/14 07:44:39;;;;;;;3.90;3.60;;;;;;;26.79;64.38;97899.59;5091399;28;20511;-75
2023/08/14 07:47:05;;;;;;;3.47;3.17;;;;;;;27.01;64.09;97896.91;5091531;28;20496;-75
2023/08/14 07:49:32;;;;;;;3.70;3.40;;;;;;;27.07;62.15;97900.41;5091545;28;21019;-75
2023/08/14 07:51:59;;;;;;;3.10;2.90;;;;;;;26.94;64.52;97892.91;5091703;28;20477;-76
2023/08/14 07:54:26;;;;;;;4.80;3.30;;;;;;;26.83;62.99;97899.81;5091314;28;21035;-76
2023/08/14 07:56:53;;;;;;;3.67;3.20;;;;;;;26.48;64.42;97896.66;5091512;28;20580;-76
2023/08/14 07:59:20;;;;;;;3.30;3.03;;;;;;;26.94;64.48;97902.06;5091534;28;20445;-76
2023/08/14 08:01:49;;;;;;;2.97;2.77;;;;;;;27.22;62.28;97905.63;5090580;28;20493;-76
2023/08/14 08:04:16;;;;;;;3.53;3.23;;;;;;;27.29;61.09;97894.06;5091344;28;20438;-76
2023/08/14 08:06:42;;;;;;;5.33;2.97;;;;;;;27.63;59.79;97901.84;5091411;28;20529;-76
2023/08/14 08:09:10;;;;;;;3.20;2.90;;;;;;;27.17;61.16;97889.06;5091401;28;20439;-76
2023/08/14 08:11:36;;;;;;;4.07;3.10;;;;;;;26.89;62.20;97895.78;5090954;28;20914;-76
2023/08/14 08:14:05;;;;;;;3.07;2.87;;;;;;;27.32;60.66;97893.41;5090902;28;20518;-76
2023/08/14 08:16:34;;;;;;;3.07;2.87;;;;;;;27.82;59.72;97899.72;5090574;28;20464;-76
2023/08/14 08:19:03;;;;;;;3.30;2.60;;;;;;;28.16;57.73;97895.47;5091510;28;20456;-75
2023/08/14 08:21:30;;;;;;;2.90;2.70;;;;;;;28.22;58.40;97899.81;5090833;28;20916;-75
2023/08/14 08:23:58;;;;;;;3.10;2.90;;;;;;;27.91;57.71;97917.28;5090761;28;20452;-75
2023/08/14 08:26:25;;;;;;;2.80;2.60;;;;;;;28.67;57.27;97915.19;5090981;28;21005;-75
2023/08/14 08:28:52;;;;;;;3.10;2.90;;;;;;;28.75;54.75;97908.00;5090932;28;20532;-76
2023/08/14 08:31:19;;;;;;;2.90;2.70;;;;;;;28.20;56.40;97911.22;5090886;28;20945;-75
2023/08/14 08:33:46;;;;;;;3.40;3.10;;;;;;;28.62;53.88;97920.91;5090301;28;20576;-75
2023/08/14 08:36:17;;;;;;;3.20;2.90;;;;;;;28.46;55.93;97918.91;5090831;28;20524;-75
2023/08/14 08:38:44;;;;;;;3.10;2.80;;;;;;;28.74;55.03;97923.91;5090102;28;20951;-75
2023/08/14 08:41:13;;;;;;;3.20;2.87;;;;;;;29.42;53.63;97916.84;5090975;28;20487;-75
2023/08/14 08:43:40;;;;;;;2.97;2.77;;;;;;;29.76;51.62;97926.34;5090632;28;20457;-76
2023/08/14 08:46:09;;;;;;;3.10;2.80;;;;;;;30.23;51.90;97920.84;5090733;28;20485;-76
2023/08/14 08:48:39;;;;;;;3.37;3.17;;;;;;;30.54;50.76;97917.81;5091099;28;20793;-75
2023/08/14 08:51:05;;;;;;;2.70;2.50;;;;;;;30.57;50.78;97923.53;5090301;28;20445;-76
2023/08/14 08:53:34;;;;;;;3.53;3.23;;;;;;;30.78;48.67;97923.63;5090149;28;20856;-76
2023/08/14 08:56:00;;;;;;;4.03;2.77;;;;;;;30.66;49.15;97921.53;5090641;28;20448;-76
2023/08/14 08:58:27;;;;;;;2.40;2.30;;;;;;;30.04;49.57;97924.03;5090603;28;20441;-76
2023/08/14 09:00:55;;;;;;;2.80;2.60;;;;;;;30.24;49.96;97919.69;5090574;28;20524;-76
2023/08/14 09:03:22;;;;;;;4.00;2.80;;;;;;;30.54;47.52;97921.38;5089746;28;20949;-75
2023/08/14 09:05:49;;;;;;;2.40;2.30;;;;;;;30.25;49.16;97922.16;5090220;28;20441;-75
2023/08/14 09:08:16;;;;;;;2.80;2.60;;;;;;;30.77;46.87;97918.38;5090320;28;20517;-76
2023/08/14 09:10:44;;;;;;;3.17;2.87;;;;;;;30.62;47.78;97922.53;5090341;28;20540;-76
2023/08/14 09:13:11;;;;;;;2.33;2.23;;;;;;;30.78;47.88;97918.03;5089710;28;20521;-75
2023/08/14 09:15:42;;;;;;;2.50;2.30;;;;;;;31.24;48.67;97916.28;5089772;28;20987;-76
2023/08/14 09:18:10;;;;;;;3.40;3.03;;;;;;;31.46;46.79;97926.31;5089954;28;20453;-76
2023/08/14 09:20:37;;;;;;;3.30;3.10;;;;;;;31.41;48.37;97924.53;5090043;28;20450;-76
2023/08/14 09:23:04;;;;;;;3.30;3.00;;;;;;;31.49;46.48;97922.84;5089990;28;20487;-76
2023/08/14 09:25:31;;;;;;;3.27;3.07;;;;;;;31.10;49.62;97933.31;5089267;28;20540;-75
2023/08/14 09:27:59;;;;;;;2.90;2.70;;;;;;;31.75;47.47;97926.25;5090156;28;20442;-76
2023/08/14 09:30:27;;;;;;;2.97;2.67;;;;;;;32.42;45.74;97918.66;5089701;28;20446;-76
2023/08/14 09:32:54;;;;;;;2.90;2.70;;;;;;;32.79;44.61;97916.72;5089330;28;20592;-76
2023/08/14 09:35:21;;;;;;;2.83;2.60;;;;;;;32.59;44.28;97912.81;5089410;28;20511;-76
2023/08/14 09:37:48;;;;;;;2.93;2.73;;;;;;;32.77;43.80;97913.47;5089343;28;20461;-76
2023/08/14 09:40:16;;;;;;;3.70;3.10;;;;;;;32.33;44.15;97910.34;5089782;28;20502;-76
2023/08/14 09:42:44;;;;;;;2.90;2.70;;;;;;;32.26;45.47;97904.50;5089740;28;20480;-76
2023/08/14 09:45:13;;;;;;;3.20;3.00;;;;;;;32.85;44.91;97899.28;5089577;28;20552;-76
2023/08/14 09:47:41;;;;;;;3.37;3.10;;;;;;;33.86;42.64;97904.81;5089607;28;20445;-76
2023/08/14 09:50:08;;;;;;;5.57;3.50;;;;;;;34.31;41.42;97896.03;5089521;28;20536;-76
2023/08/14 09:52:35;;;;;;;2.77;2.57;;;;;;;34.48;40.94;97897.66;5089531;28;20549;-76
2023/08/14 09:55:03;;;;;;;3.60;3.30;;;;;;;33.80;42.08;97895.00;5088882;28;20444;-76
2023/08/14 09:57:30;;;;;;;3.67;3.37;;;;;;;33.49;43.52;97894.88;5089261;28;20831;-76
2023/08/14 09:59:57;;;;;;;4.60;3.50;;;;;;;33.66;42.55;97903.00;5089181;28;20434;-76
2023/08/14 10:02:26;;;;;;;3.03;2.83;;;;;;;33.96;41.88;97904.31;5089521;28;20552;-76
2023/08/14 10:04:54;;;;;;;3.40;3.10;;;;;;;34.10;40.50;97898.25;5089430;28;20461;-76
2023/08/14 10:07:22;;;;;;;3.30;3.07;;;;;;;34.85;39.58;97894.59;5089708;28;20449;-76
2023/08/14 10:09:51;;;;;;;3.70;3.43;;;;;;;34.93;39.61;97888.78;5089529;28;20457;-76
2023/08/14 10:12:20;;;;;;;3.60;3.30;;;;;;;34.45;40.38;97884.34;5089181;28;20523;-76
2023/08/14 10:14:51;;;;;;;3.53;3.30;;;;;;;34.23;40.98;97882.13;5088971;28;20551;-76
2023/08/14 10:17:21;;;;;;;3.57;3.37;;;;;;;34.39;40.51;97885.81;5089511;28;20581;-76
2023/08/14 10:19:51;;;;;;;4.20;3.80;;;;;;;34.28;40.93;97882.69;5089404;28;20469;-76
2023/08/14 10:22:19;;;;;;;3.40;3.10;;;;;;;34.54;40.60;97890.59;5089256;28;20544;-75
2023/08/14 10:24:46;;;;;;;3.73;3.43;;;;;;;34.54;40.87;97873.72;5088623;28;20449;-76
2023/08/14 10:27:13;;;;;;;3.70;3.40;;;;;;;34.76;40.20;97880.72;5093280;28;20441;-75
2023/08/14 10:29:40;;;;;;;3.70;3.37;;;;;;;35.11;39.33;97882.72;5093565;28;20444;-76
2023/08/14 10:32:07;;;;;;;3.87;3.57;;;;;;;35.63;37.79;97887.94;5093178;28;21016;-76
2023/08/14 10:34:35;;;;;;;3.60;3.30;;;;;;;35.93;36.77;97882.53;5092597;28;20584;-76
2023/08/14 10:37:03;;;;;;;4.07;3.77;;;;;;;36.10;35.94;97884.03;5092923;28;20957;-76
2023/08/14 10:39:34;;;;;;;3.80;3.23;;;;;;;35.30;37.28;97888.44;5093289;28;20851;-76
2023/08/14 10:42:04;;;;;;;3.67;3.47;;;;;;;34.59;39.40;97881.88;5093294;28;20555;-77
2023/08/14 10:44:36;;;;;;;3.63;3.33;;;;;;;34.22;40.51;97878.50;5092839;28;20522;-76
2023/08/14 10:47:06;;;;;;;4.27;3.70;;;;;;;33.45;41.69;97880.75;5093158;28;20433;-76
2023/08/14 10:49:42;;;;;;;3.50;3.30;;;;;;;33.14;42.57;97881.38;5092229;28;20446;-76
2023/08/14 10:52:13;;;;;;;3.83;3.53;;;;;;;33.25;42.23;97876.91;5091758;28;20491;-76
2023/08/14 10:54:40;;;;;;;3.43;3.23;;;;;;;34.12;40.67;97879.03;5092080;28;20572;-76
2023/08/14 10:57:09;;;;;;;3.70;3.47;;;;;;;34.82;39.23;97881.25;5091482;28;20449;-76
2023/08/14 10:59:35;;;;;;;3.83;3.53;;;;;;;34.92;38.63;97880.69;5092306;28;20477;-77
2023/08/14 11:02:06;;;;;;;3.47;3.17;;;;;;;33.88;38.86;97874.38;5091060;28;21004;-76
2023/08/14 11:04:36;;;;;;;3.33;3.03;;;;;;;34.01;39.82;97881.56;5092023;28;21057;-76
2023/08/14 11:07:08;;;;;;;4.00;3.60;;;;;;;33.97;39.59;97880.66;5091960;28;20521;-76
2023/08/14 11:09:38;;;;;;;3.53;3.23;;;;;;;33.20;41.01;97885.56;5092085;28;20438;-76
2023/08/14 11:12:07;;;;;;;3.43;3.20;;;;;;;33.04;40.72;97879.88;5091883;28;20453;-76
2023/08/14 11:14:37;;;;;;;3.50;3.20;;;;;;;33.19;41.65;97878.31;5091444;28;20489;-76
2023/08/14 11:17:04;;;;;;;3.93;3.63;;;;;;;33.45;40.80;97883.56;5091569;28;20437;-77
2023/08/14 11:19:34;;;;;;;3.23;3.03;;;;;;;32.64;41.04;97876.16;5091839;28;20485;-76
2023/08/14 11:22:01;;;;;;;3.73;3.43;;;;;;;33.20;40.33;97877.16;5091591;28;20895;-76
2023/08/14 11:24:29;;;;;;;3.63;3.40;;;;;;;33.67;38.98;97879.38;5091274;28;20441;-76
2023/08/14 11:26:59;;;;;;;3.70;3.40;;;;;;;33.62;40.29;97872.00;5091364;28;20502;-76